sensor_id;sensor_type;location;lat;lon;timestamp;P1;durP1;ratioP1;P2;durP2;ratioP2
29550;SDS011;16488;52.396;10.696;2024-01-06T00:01:10;71.88;;;28.20;;
29550;SDS011;16488;52.396;10.696;2024-01-06T00:03:37;77.25;;;28.52;;
29550;SDS011;16488;52.396;10.696;2024-01-06T00:06:03;68.75;;;28.05;;
29550;SDS011;16488;52.396;10.696;2024-01-06T00:08:29;68.90;;;27.38;;
29550;SDS011;16488;52.396;10.696;2024-01-06T00:10:54;66.00;;;24.55;;
29550;SDS011;16488;52.396;10.696;2024-01-06T00:13:20;71.75;;;27.30;;
29550;SDS011;16488;52.396;10.696;2024-01-06T00:15:46;64.05;;;27.40;;
29550;SDS011;16488;52.396;10.696;2024-01-06T00:18:11;60.38;;;25.73;;
29550;SDS011;16488;52.396;10.696;2024-01-06T00:20:37;60.13;;;24.08;;
29550;SDS011;16488;52.396;10.696;2024-01-06T00:23:03;63.97;;;25.50;;
29550;SDS011;16488;52.396;10.696;2024-01-06T00:25:28;67.95;;;25.98;;
29550;SDS011;16488;52.396;10.696;2024-01-06T00:27:54;66.35;;;25.48;;
29550;SDS011;16488;52.396;10.696;2024-01-06T00:30:20;65.25;;;26.33;;
29550;SDS011;16488;52.396;10.696;2024-01-06T00:32:46;61.25;;;25.27;;
29550;SDS011;16488;52.396;10.696;2024-01-06T00:35:11;63.00;;;24.80;;
29550;SDS011;16488;52.396;10.696;2024-01-06T00:37:37;55.05;;;23.90;;
29550;SDS011;16488;52.396;10.696;2024-01-06T00:40:03;58.47;;;24.35;;
29550;SDS011;16488;52.396;10.696;2024-01-06T00:42:29;64.20;;;23.75;;
29550;SDS011;16488;52.396;10.696;2024-01-06T00:44:55;59.58;;;24.92;;
29550;SDS011;16488;52.396;10.696;2024-01-06T00:47:20;62.13;;;23.80;;
29550;SDS011;16488;52.396;10.696;2024-01-06T00:49:49;60.72;;;25.45;;
29550;SDS011;16488;52.396;10.696;2024-01-06T00:52:14;70.50;;;27.48;;
29550;SDS011;16488;52.396;10.696;2024-01-06T00:54:40;61.30;;;25.65;;
29550;SDS011;16488;52.396;10.696;2024-01-06T00:57:06;65.32;;;25.38;;
29550;SDS011;16488;52.396;10.696;2024-01-06T01:01:57;75.10;;;26.27;;
29550;SDS011;16488;52.396;10.696;2024-01-06T01:04:23;60.60;;;24.85;;
29550;SDS011;16488;52.396;10.696;2024-01-06T01:06:49;67.82;;;25.13;;
29550;SDS011;16488;52.396;10.696;2024-01-06T01:09:14;72.82;;;27.25;;
29550;SDS011;16488;52.396;10.696;2024-01-06T01:11:41;77.07;;;28.55;;
29550;SDS011;16488;52.396;10.696;2024-01-06T01:14:06;65.20;;;25.13;;
29550;SDS011;16488;52.396;10.696;2024-01-06T01:16:32;81.50;;;30.33;;
29550;SDS011;16488;52.396;10.696;2024-01-06T01:18:58;86.18;;;28.75;;
29550;SDS011;16488;52.396;10.696;2024-01-06T01:21:24;90.47;;;28.00;;
29550;SDS011;16488;52.396;10.696;2024-01-06T01:23:50;86.00;;;27.83;;
29550;SDS011;16488;52.396;10.696;2024-01-06T01:26:15;79.70;;;26.20;;
29550;SDS011;16488;52.396;10.696;2024-01-06T01:28:41;73.82;;;27.52;;
29550;SDS011;16488;52.396;10.696;2024-01-06T01:31:07;83.85;;;27.58;;
29550;SDS011;16488;52.396;10.696;2024-01-06T01:33:33;86.15;;;28.90;;
29550;SDS011;16488;52.396;10.696;2024-01-06T01:35:59;75.78;;;25.70;;
29550;SDS011;16488;52.396;10.696;2024-01-06T01:38:24;90.15;;;29.10;;
29550;SDS011;16488;52.396;10.696;2024-01-06T01:40:50;88.85;;;31.10;;
29550;SDS011;16488;52.396;10.696;2024-01-06T01:43:16;95.50;;;29.90;;
29550;SDS011;16488;52.396;10.696;2024-01-06T01:45:45;101.25;;;30.33;;
29550;SDS011;16488;52.396;10.696;2024-01-06T01:48:16;90.85;;;30.02;;
29550;SDS011;16488;52.396;10.696;2024-01-06T01:50:43;90.35;;;30.33;;
29550;SDS011;16488;52.396;10.696;2024-01-06T01:53:09;85.82;;;29.58;;
29550;SDS011;16488;52.396;10.696;2024-01-06T01:55:35;99.75;;;26.60;;
29550;SDS011;16488;52.396;10.696;2024-01-06T01:58:01;98.65;;;29.20;;
29550;SDS011;16488;52.396;10.696;2024-01-06T02:00:27;95.50;;;29.42;;
29550;SDS011;16488;52.396;10.696;2024-01-06T02:02:53;81.93;;;26.52;;
29550;SDS011;16488;52.396;10.696;2024-01-06T02:05:19;91.80;;;29.65;;
29550;SDS011;16488;52.396;10.696;2024-01-06T02:07:44;85.63;;;27.83;;
29550;SDS011;16488;52.396;10.696;2024-01-06T02:10:10;86.80;;;28.83;;
29550;SDS011;16488;52.396;10.696;2024-01-06T02:12:36;91.07;;;30.60;;
29550;SDS011;16488;52.396;10.696;2024-01-06T02:15:01;97.63;;;29.58;;
29550;SDS011;16488;52.396;10.696;2024-01-06T02:17:27;84.85;;;27.27;;
29550;SDS011;16488;52.396;10.696;2024-01-06T02:19:53;79.72;;;29.65;;
29550;SDS011;16488;52.396;10.696;2024-01-06T02:22:18;87.70;;;29.48;;
29550;SDS011;16488;52.396;10.696;2024-01-06T02:24:44;99.05;;;29.85;;
29550;SDS011;16488;52.396;10.696;2024-01-06T02:27:10;83.57;;;27.73;;
29550;SDS011;16488;52.396;10.696;2024-01-06T02:29:35;89.28;;;26.58;;
29550;SDS011;16488;52.396;10.696;2024-01-06T02:32:01;80.15;;;28.02;;
29550;SDS011;16488;52.396;10.696;2024-01-06T02:34:27;89.43;;;26.80;;
29550;SDS011;16488;52.396;10.696;2024-01-06T02:36:52;88.22;;;28.08;;
29550;SDS011;16488;52.396;10.696;2024-01-06T02:39:18;81.45;;;27.00;;
29550;SDS011;16488;52.396;10.696;2024-01-06T02:41:44;78.13;;;27.52;;
29550;SDS011;16488;52.396;10.696;2024-01-06T02:44:09;80.32;;;26.00;;
29550;SDS011;16488;52.396;10.696;2024-01-06T02:46:35;76.60;;;25.98;;
29550;SDS011;16488;52.396;10.696;2024-01-06T02:49:01;76.10;;;25.50;;
29550;SDS011;16488;52.396;10.696;2024-01-06T02:51:26;83.05;;;26.02;;
29550;SDS011;16488;52.396;10.696;2024-01-06T02:53:52;68.68;;;24.75;;
29550;SDS011;16488;52.396;10.696;2024-01-06T02:56:18;82.05;;;27.05;;
29550;SDS011;16488;52.396;10.696;2024-01-06T02:58:43;83.97;;;27.38;;
29550;SDS011;16488;52.396;10.696;2024-01-06T03:01:10;70.03;;;26.65;;
29550;SDS011;16488;52.396;10.696;2024-01-06T03:03:36;76.65;;;26.38;;
29550;SDS011;16488;52.396;10.696;2024-01-06T03:06:02;84.78;;;26.13;;
29550;SDS011;16488;52.396;10.696;2024-01-06T03:08:28;67.68;;;25.65;;
29550;SDS011;16488;52.396;10.696;2024-01-06T03:10:53;80.22;;;25.77;;
29550;SDS011;16488;52.396;10.696;2024-01-06T03:13:19;75.22;;;25.98;;
29550;SDS011;16488;52.396;10.696;2024-01-06T03:15:45;80.25;;;27.30;;
29550;SDS011;16488;52.396;10.696;2024-01-06T03:18:11;89.60;;;28.27;;
29550;SDS011;16488;52.396;10.696;2024-01-06T03:20:36;79.90;;;27.60;;
29550;SDS011;16488;52.396;10.696;2024-01-06T03:23:02;72.85;;;25.90;;
29550;SDS011;16488;52.396;10.696;2024-01-06T03:25:28;76.63;;;26.60;;
29550;SDS011;16488;52.396;10.696;2024-01-06T03:27:54;81.68;;;26.95;;
29550;SDS011;16488;52.396;10.696;2024-01-06T03:30:19;76.00;;;25.52;;
29550;SDS011;16488;52.396;10.696;2024-01-06T03:32:45;76.45;;;25.05;;
29550;SDS011;16488;52.396;10.696;2024-01-06T03:35:10;72.53;;;24.88;;
29550;SDS011;16488;52.396;10.696;2024-01-06T03:37:36;69.45;;;24.63;;
29550;SDS011;16488;52.396;10.696;2024-01-06T03:40:02;69.63;;;25.80;;
29550;SDS011;16488;52.396;10.696;2024-01-06T03:44:54;68.75;;;25.05;;
29550;SDS011;16488;52.396;10.696;2024-01-06T03:47:19;80.28;;;28.42;;
29550;SDS011;16488;52.396;10.696;2024-01-06T03:49:45;75.47;;;26.95;;
29550;SDS011;16488;52.396;10.696;2024-01-06T03:52:11;72.20;;;26.13;;
29550;SDS011;16488;52.396;10.696;2024-01-06T03:54:36;80.20;;;28.45;;
29550;SDS011;16488;52.396;10.696;2024-01-06T03:57:02;88.10;;;29.10;;
29550;SDS011;16488;52.396;10.696;2024-01-06T03:59:28;74.40;;;25.58;;
29550;SDS011;16488;52.396;10.696;2024-01-06T04:01:53;71.47;;;24.17;;
29550;SDS011;16488;52.396;10.696;2024-01-06T04:04:19;77.88;;;26.80;;
29550;SDS011;16488;52.396;10.696;2024-01-06T04:06:45;77.30;;;27.17;;
29550;SDS011;16488;52.396;10.696;2024-01-06T04:09:11;71.30;;;24.20;;
29550;SDS011;16488;52.396;10.696;2024-01-06T04:11:36;77.13;;;24.08;;
29550;SDS011;16488;52.396;10.696;2024-01-06T04:14:02;67.18;;;24.90;;
29550;SDS011;16488;52.396;10.696;2024-01-06T04:16:28;67.68;;;23.15;;
29550;SDS011;16488;52.396;10.696;2024-01-06T04:18:54;69.97;;;23.67;;
29550;SDS011;16488;52.396;10.696;2024-01-06T04:21:20;68.97;;;24.50;;
29550;SDS011;16488;52.396;10.696;2024-01-06T04:23:45;69.05;;;25.65;;
29550;SDS011;16488;52.396;10.696;2024-01-06T04:26:11;72.50;;;24.20;;
29550;SDS011;16488;52.396;10.696;2024-01-06T04:28:37;71.78;;;24.48;;
29550;SDS011;16488;52.396;10.696;2024-01-06T04:31:03;70.70;;;26.40;;
29550;SDS011;16488;52.396;10.696;2024-01-06T04:33:28;70.03;;;25.17;;
29550;SDS011;16488;52.396;10.696;2024-01-06T04:35:54;66.30;;;25.98;;
29550;SDS011;16488;52.396;10.696;2024-01-06T04:38:19;70.95;;;26.75;;
29550;SDS011;16488;52.396;10.696;2024-01-06T04:40:45;73.03;;;27.25;;
29550;SDS011;16488;52.396;10.696;2024-01-06T04:43:11;88.88;;;28.55;;
29550;SDS011;16488;52.396;10.696;2024-01-06T04:45:37;83.78;;;26.65;;
29550;SDS011;16488;52.396;10.696;2024-01-06T04:48:03;83.93;;;30.20;;
29550;SDS011;16488;52.396;10.696;2024-01-06T04:50:29;88.78;;;29.38;;
29550;SDS011;16488;52.396;10.696;2024-01-06T04:52:55;90.03;;;31.90;;
29550;SDS011;16488;52.396;10.696;2024-01-06T04:55:20;99.00;;;32.03;;
29550;SDS011;16488;52.396;10.696;2024-01-06T04:57:47;99.75;;;32.10;;
29550;SDS011;16488;52.396;10.696;2024-01-06T05:00:14;98.60;;;30.67;;
29550;SDS011;16488;52.396;10.696;2024-01-06T05:02:40;92.45;;;28.73;;
29550;SDS011;16488;52.396;10.696;2024-01-06T05:05:06;88.00;;;29.58;;
29550;SDS011;16488;52.396;10.696;2024-01-06T05:07:32;94.07;;;29.40;;
29550;SDS011;16488;52.396;10.696;2024-01-06T05:09:57;100.95;;;30.40;;
29550;SDS011;16488;52.396;10.696;2024-01-06T05:12:23;90.47;;;29.58;;
29550;SDS011;16488;52.396;10.696;2024-01-06T05:14:49;86.90;;;28.80;;
29550;SDS011;16488;52.396;10.696;2024-01-06T05:17:14;83.57;;;27.15;;
29550;SDS011;16488;52.396;10.696;2024-01-06T05:19:40;84.70;;;27.52;;
29550;SDS011;16488;52.396;10.696;2024-01-06T05:22:06;75.63;;;26.00;;
29550;SDS011;16488;52.396;10.696;2024-01-06T05:24:32;75.90;;;27.38;;
29550;SDS011;16488;52.396;10.696;2024-01-06T05:26:57;72.22;;;23.27;;
29550;SDS011;16488;52.396;10.696;2024-01-06T05:29:23;76.82;;;25.98;;
29550;SDS011;16488;52.396;10.696;2024-01-06T05:31:51;73.97;;;24.65;;
29550;SDS011;16488;52.396;10.696;2024-01-06T05:34:16;69.00;;;23.90;;
29550;SDS011;16488;52.396;10.696;2024-01-06T05:36:42;71.97;;;25.13;;
29550;SDS011;16488;52.396;10.696;2024-01-06T05:39:08;66.05;;;22.20;;
29550;SDS011;16488;52.396;10.696;2024-01-06T05:41:37;66.28;;;24.70;;
29550;SDS011;16488;52.396;10.696;2024-01-06T05:44:04;70.53;;;24.83;;
29550;SDS011;16488;52.396;10.696;2024-01-06T05:46:30;81.95;;;25.98;;
29550;SDS011;16488;52.396;10.696;2024-01-06T05:48:55;72.68;;;28.23;;
29550;SDS011;16488;52.396;10.696;2024-01-06T05:51:21;77.32;;;28.75;;
29550;SDS011;16488;52.396;10.696;2024-01-06T05:53:47;78.78;;;27.10;;
29550;SDS011;16488;52.396;10.696;2024-01-06T05:56:25;75.13;;;28.42;;
29550;SDS011;16488;52.396;10.696;2024-01-06T05:58:51;69.38;;;26.13;;
29550;SDS011;16488;52.396;10.696;2024-01-06T06:01:18;69.82;;;26.80;;
29550;SDS011;16488;52.396;10.696;2024-01-06T06:03:45;71.13;;;28.50;;
29550;SDS011;16488;52.396;10.696;2024-01-06T06:06:12;65.95;;;24.95;;
29550;SDS011;16488;52.396;10.696;2024-01-06T06:08:38;68.15;;;25.58;;
29550;SDS011;16488;52.396;10.696;2024-01-06T06:11:07;68.35;;;23.95;;
29550;SDS011;16488;52.396;10.696;2024-01-06T06:13:42;69.45;;;24.70;;
29550;SDS011;16488;52.396;10.696;2024-01-06T06:16:10;65.60;;;24.75;;
29550;SDS011;16488;52.396;10.696;2024-01-06T06:18:39;63.33;;;23.45;;
29550;SDS011;16488;52.396;10.696;2024-01-06T06:21:06;61.38;;;22.20;;
29550;SDS011;16488;52.396;10.696;2024-01-06T06:23:32;59.28;;;22.30;;
29550;SDS011;16488;52.396;10.696;2024-01-06T06:25:58;59.67;;;23.40;;
29550;SDS011;16488;52.396;10.696;2024-01-06T06:28:27;53.10;;;22.98;;
29550;SDS011;16488;52.396;10.696;2024-01-06T06:30:52;60.88;;;21.83;;
29550;SDS011;16488;52.396;10.696;2024-01-06T06:33:18;52.03;;;21.90;;
29550;SDS011;16488;52.396;10.696;2024-01-06T06:35:44;57.10;;;22.25;;
29550;SDS011;16488;52.396;10.696;2024-01-06T06:38:10;60.38;;;23.17;;
29550;SDS011;16488;52.396;10.696;2024-01-06T06:40:35;52.72;;;20.27;;
29550;SDS011;16488;52.396;10.696;2024-01-06T06:43:01;52.38;;;21.33;;
29550;SDS011;16488;52.396;10.696;2024-01-06T06:45:27;59.03;;;21.30;;
29550;SDS011;16488;52.396;10.696;2024-01-06T06:47:53;63.20;;;21.17;;
29550;SDS011;16488;52.396;10.696;2024-01-06T06:50:19;66.60;;;25.58;;
29550;SDS011;16488;52.396;10.696;2024-01-06T06:52:46;60.65;;;22.27;;
29550;SDS011;16488;52.396;10.696;2024-01-06T06:55:11;66.30;;;26.75;;
29550;SDS011;16488;52.396;10.696;2024-01-06T06:57:37;81.85;;;26.80;;
29550;SDS011;16488;52.396;10.696;2024-01-06T07:02:29;74.97;;;23.80;;
29550;SDS011;16488;52.396;10.696;2024-01-06T07:04:55;93.65;;;30.30;;
29550;SDS011;16488;52.396;10.696;2024-01-06T07:07:21;86.97;;;29.25;;
29550;SDS011;16488;52.396;10.696;2024-01-06T07:12:12;78.13;;;26.17;;
29550;SDS011;16488;52.396;10.696;2024-01-06T07:14:38;77.80;;;28.73;;
29550;SDS011;16488;52.396;10.696;2024-01-06T07:17:04;70.95;;;25.65;;
29550;SDS011;16488;52.396;10.696;2024-01-06T07:19:31;70.15;;;26.02;;
29550;SDS011;16488;52.396;10.696;2024-01-06T07:21:57;85.45;;;27.25;;
29550;SDS011;16488;52.396;10.696;2024-01-06T07:24:23;74.65;;;26.55;;
29550;SDS011;16488;52.396;10.696;2024-01-06T07:26:48;75.88;;;25.85;;
29550;SDS011;16488;52.396;10.696;2024-01-06T07:29:14;90.90;;;27.30;;
29550;SDS011;16488;52.396;10.696;2024-01-06T07:31:40;83.57;;;28.02;;
29550;SDS011;16488;52.396;10.696;2024-01-06T07:34:05;87.30;;;30.73;;
29550;SDS011;16488;52.396;10.696;2024-01-06T07:36:31;97.63;;;28.73;;
29550;SDS011;16488;52.396;10.696;2024-01-06T07:38:57;86.38;;;27.42;;
29550;SDS011;16488;52.396;10.696;2024-01-06T07:41:23;95.53;;;31.23;;
29550;SDS011;16488;52.396;10.696;2024-01-06T07:43:48;102.05;;;30.15;;
29550;SDS011;16488;52.396;10.696;2024-01-06T07:46:14;90.72;;;28.67;;
29550;SDS011;16488;52.396;10.696;2024-01-06T07:48:40;89.55;;;30.67;;
29550;SDS011;16488;52.396;10.696;2024-01-06T07:51:06;93.32;;;30.55;;
29550;SDS011;16488;52.396;10.696;2024-01-06T07:53:32;95.63;;;28.80;;
29550;SDS011;16488;52.396;10.696;2024-01-06T07:58:23;95.07;;;32.65;;
29550;SDS011;16488;52.396;10.696;2024-01-06T08:00:49;116.28;;;35.10;;
29550;SDS011;16488;52.396;10.696;2024-01-06T08:03:15;111.43;;;35.65;;
29550;SDS011;16488;52.396;10.696;2024-01-06T08:08:06;109.70;;;35.08;;
29550;SDS011;16488;52.396;10.696;2024-01-06T08:10:32;111.03;;;34.45;;
29550;SDS011;16488;52.396;10.696;2024-01-06T08:12:58;109.97;;;33.42;;
29550;SDS011;16488;52.396;10.696;2024-01-06T08:15:24;106.07;;;31.90;;
29550;SDS011;16488;52.396;10.696;2024-01-06T08:17:50;115.68;;;34.58;;
29550;SDS011;16488;52.396;10.696;2024-01-06T08:20:15;101.95;;;32.05;;
29550;SDS011;16488;52.396;10.696;2024-01-06T08:22:41;99.07;;;33.88;;
29550;SDS011;16488;52.396;10.696;2024-01-06T08:25:07;108.78;;;34.60;;
29550;SDS011;16488;52.396;10.696;2024-01-06T08:27:33;119.32;;;36.78;;
29550;SDS011;16488;52.396;10.696;2024-01-06T08:29:59;104.05;;;32.42;;
29550;SDS011;16488;52.396;10.696;2024-01-06T08:32:25;108.40;;;35.33;;
29550;SDS011;16488;52.396;10.696;2024-01-06T08:34:51;101.93;;;33.72;;
29550;SDS011;16488;52.396;10.696;2024-01-06T08:39:42;86.78;;;29.77;;
29550;SDS011;16488;52.396;10.696;2024-01-06T08:42:08;107.05;;;34.60;;
29550;SDS011;16488;52.396;10.696;2024-01-06T08:44:34;97.25;;;34.40;;
29550;SDS011;16488;52.396;10.696;2024-01-06T08:46:59;98.82;;;31.95;;
29550;SDS011;16488;52.396;10.696;2024-01-06T08:49:25;92.97;;;30.85;;
29550;SDS011;16488;52.396;10.696;2024-01-06T08:51:51;89.93;;;31.08;;
29550;SDS011;16488;52.396;10.696;2024-01-06T08:54:16;97.03;;;29.38;;
29550;SDS011;16488;52.396;10.696;2024-01-06T08:56:42;91.30;;;31.33;;
29550;SDS011;16488;52.396;10.696;2024-01-06T08:59:08;103.95;;;31.83;;
29550;SDS011;16488;52.396;10.696;2024-01-06T09:01:34;103.88;;;33.60;;
29550;SDS011;16488;52.396;10.696;2024-01-06T09:04:01;105.78;;;35.60;;
29550;SDS011;16488;52.396;10.696;2024-01-06T09:06:27;97.18;;;31.88;;
29550;SDS011;16488;52.396;10.696;2024-01-06T09:08:53;100.50;;;32.88;;
29550;SDS011;16488;52.396;10.696;2024-01-06T09:11:19;104.05;;;31.98;;
29550;SDS011;16488;52.396;10.696;2024-01-06T09:13:44;107.65;;;32.83;;
29550;SDS011;16488;52.396;10.696;2024-01-06T09:16:10;110.35;;;35.00;;
29550;SDS011;16488;52.396;10.696;2024-01-06T09:18:36;101.85;;;32.78;;
29550;SDS011;16488;52.396;10.696;2024-01-06T09:21:01;98.75;;;34.35;;
29550;SDS011;16488;52.396;10.696;2024-01-06T09:23:28;90.65;;;35.00;;
29550;SDS011;16488;52.396;10.696;2024-01-06T09:25:54;98.28;;;31.42;;
29550;SDS011;16488;52.396;10.696;2024-01-06T09:28:20;98.82;;;31.65;;
29550;SDS011;16488;52.396;10.696;2024-01-06T09:30:48;101.13;;;33.40;;
29550;SDS011;16488;52.396;10.696;2024-01-06T09:33:14;97.88;;;32.90;;
29550;SDS011;16488;52.396;10.696;2024-01-06T09:35:42;95.47;;;32.08;;
29550;SDS011;16488;52.396;10.696;2024-01-06T09:38:09;95.13;;;32.92;;
29550;SDS011;16488;52.396;10.696;2024-01-06T09:40:35;110.60;;;36.33;;
29550;SDS011;16488;52.396;10.696;2024-01-06T09:43:08;98.15;;;34.55;;
29550;SDS011;16488;52.396;10.696;2024-01-06T09:45:34;106.53;;;34.17;;
29550;SDS011;16488;52.396;10.696;2024-01-06T09:48:00;104.82;;;32.92;;
29550;SDS011;16488;52.396;10.696;2024-01-06T09:50:35;101.72;;;33.08;;
29550;SDS011;16488;52.396;10.696;2024-01-06T09:53:00;97.97;;;32.00;;
29550;SDS011;16488;52.396;10.696;2024-01-06T09:55:31;92.30;;;33.30;;
29550;SDS011;16488;52.396;10.696;2024-01-06T09:57:56;85.80;;;30.48;;
29550;SDS011;16488;52.396;10.696;2024-01-06T10:00:22;89.55;;;30.63;;
29550;SDS011;16488;52.396;10.696;2024-01-06T10:02:48;86.68;;;30.60;;
29550;SDS011;16488;52.396;10.696;2024-01-06T10:05:17;101.18;;;31.98;;
29550;SDS011;16488;52.396;10.696;2024-01-06T10:07:43;90.13;;;31.55;;
29550;SDS011;16488;52.396;10.696;2024-01-06T10:10:10;95.40;;;34.78;;
29550;SDS011;16488;52.396;10.696;2024-01-06T10:12:39;87.53;;;30.92;;
29550;SDS011;16488;52.396;10.696;2024-01-06T10:15:09;86.85;;;31.80;;
29550;SDS011;16488;52.396;10.696;2024-01-06T10:17:38;85.95;;;29.58;;
29550;SDS011;16488;52.396;10.696;2024-01-06T10:20:08;88.65;;;32.03;;
29550;SDS011;16488;52.396;10.696;2024-01-06T10:22:36;82.55;;;29.75;;
29550;SDS011;16488;52.396;10.696;2024-01-06T10:25:04;86.63;;;30.73;;
29550;SDS011;16488;52.396;10.696;2024-01-06T10:27:30;92.30;;;30.52;;
29550;SDS011;16488;52.396;10.696;2024-01-06T10:29:58;91.22;;;31.02;;
29550;SDS011;16488;52.396;10.696;2024-01-06T10:32:24;91.15;;;32.13;;
29550;SDS011;16488;52.396;10.696;2024-01-06T10:34:53;81.07;;;29.80;;
29550;SDS011;16488;52.396;10.696;2024-01-06T10:37:20;82.88;;;29.10;;
29550;SDS011;16488;52.396;10.696;2024-01-06T10:39:46;78.72;;;28.85;;
29550;SDS011;16488;52.396;10.696;2024-01-06T10:42:11;82.13;;;27.05;;
29550;SDS011;16488;52.396;10.696;2024-01-06T10:44:39;76.75;;;27.67;;
29550;SDS011;16488;52.396;10.696;2024-01-06T10:47:07;84.50;;;29.33;;
29550;SDS011;16488;52.396;10.696;2024-01-06T10:49:33;88.15;;;31.95;;
29550;SDS011;16488;52.396;10.696;2024-01-06T10:52:01;104.88;;;33.50;;
29550;SDS011;16488;52.396;10.696;2024-01-06T10:54:26;106.55;;;35.00;;
29550;SDS011;16488;52.396;10.696;2024-01-06T10:56:53;113.28;;;37.20;;
29550;SDS011;16488;52.396;10.696;2024-01-06T10:59:19;100.53;;;33.95;;
29550;SDS011;16488;52.396;10.696;2024-01-06T11:01:50;107.40;;;37.05;;
29550;SDS011;16488;52.396;10.696;2024-01-06T11:04:18;117.38;;;38.13;;
29550;SDS011;16488;52.396;10.696;2024-01-06T11:06:45;113.35;;;36.60;;
29550;SDS011;16488;52.396;10.696;2024-01-06T11:11:44;118.47;;;40.15;;
29550;SDS011;16488;52.396;10.696;2024-01-06T11:16:49;115.47;;;33.75;;
29550;SDS011;16488;52.396;10.696;2024-01-06T11:25:06;93.03;;;33.60;;
29550;SDS011;16488;52.396;10.696;2024-01-06T11:27:33;102.18;;;34.20;;
29550;SDS011;16488;52.396;10.696;2024-01-06T11:30:01;101.25;;;35.80;;
29550;SDS011;16488;52.396;10.696;2024-01-06T11:35:05;93.32;;;32.50;;
29550;SDS011;16488;52.396;10.696;2024-01-06T11:40:10;99.00;;;34.10;;
29550;SDS011;16488;52.396;10.696;2024-01-06T11:43:00;104.18;;;34.72;;
29550;SDS011;16488;52.396;10.696;2024-01-06T11:45:27;99.47;;;33.95;;
29550;SDS011;16488;52.396;10.696;2024-01-06T11:47:56;86.88;;;33.95;;
29550;SDS011;16488;52.396;10.696;2024-01-06T11:50:28;90.47;;;32.88;;
29550;SDS011;16488;52.396;10.696;2024-01-06T11:52:55;96.90;;;31.70;;
29550;SDS011;16488;52.396;10.696;2024-01-06T11:57:46;91.88;;;29.42;;
29550;SDS011;16488;52.396;10.696;2024-01-06T12:00:14;86.22;;;31.08;;
29550;SDS011;16488;52.396;10.696;2024-01-06T12:05:11;80.28;;;28.80;;
29550;SDS011;16488;52.396;10.696;2024-01-06T12:07:42;94.97;;;33.25;;
29550;SDS011;16488;52.396;10.696;2024-01-06T12:10:09;87.20;;;31.23;;
29550;SDS011;16488;52.396;10.696;2024-01-06T12:12:36;80.88;;;28.77;;
29550;SDS011;16488;52.396;10.696;2024-01-06T12:17:28;90.70;;;30.25;;
29550;SDS011;16488;52.396;10.696;2024-01-06T12:19:55;82.75;;;31.13;;
29550;SDS011;16488;52.396;10.696;2024-01-06T12:22:21;95.35;;;30.42;;
29550;SDS011;16488;52.396;10.696;2024-01-06T12:24:50;92.88;;;30.70;;
29550;SDS011;16488;52.396;10.696;2024-01-06T12:27:16;84.68;;;32.35;;
29550;SDS011;16488;52.396;10.696;2024-01-06T12:29:43;83.53;;;32.28;;
29550;SDS011;16488;52.396;10.696;2024-01-06T12:32:09;90.22;;;32.95;;
29550;SDS011;16488;52.396;10.696;2024-01-06T12:34:38;91.70;;;32.42;;
29550;SDS011;16488;52.396;10.696;2024-01-06T12:37:04;82.57;;;32.72;;
29550;SDS011;16488;52.396;10.696;2024-01-06T12:39:32;91.60;;;31.75;;
29550;SDS011;16488;52.396;10.696;2024-01-06T12:41:58;104.20;;;31.65;;
29550;SDS011;16488;52.396;10.696;2024-01-06T12:44:26;104.50;;;33.35;;
29550;SDS011;16488;52.396;10.696;2024-01-06T12:46:52;97.15;;;34.70;;
29550;SDS011;16488;52.396;10.696;2024-01-06T12:51:44;94.93;;;32.95;;
29550;SDS011;16488;52.396;10.696;2024-01-06T12:54:10;93.35;;;34.42;;
29550;SDS011;16488;52.396;10.696;2024-01-06T12:56:35;94.70;;;33.15;;
29550;SDS011;16488;52.396;10.696;2024-01-06T12:59:01;87.20;;;30.38;;
29550;SDS011;16488;52.396;10.696;2024-01-06T13:01:27;105.75;;;34.60;;
29550;SDS011;16488;52.396;10.696;2024-01-06T13:03:53;98.35;;;37.13;;
29550;SDS011;16488;52.396;10.696;2024-01-06T13:06:19;92.97;;;33.88;;
29550;SDS011;16488;52.396;10.696;2024-01-06T13:08:45;99.80;;;36.85;;
29550;SDS011;16488;52.396;10.696;2024-01-06T13:11:12;99.82;;;33.88;;
29550;SDS011;16488;52.396;10.696;2024-01-06T13:13:38;100.43;;;32.80;;
29550;SDS011;16488;52.396;10.696;2024-01-06T13:16:03;103.70;;;33.53;;
29550;SDS011;16488;52.396;10.696;2024-01-06T13:18:31;99.80;;;33.45;;
29550;SDS011;16488;52.396;10.696;2024-01-06T13:20:56;104.28;;;33.60;;
29550;SDS011;16488;52.396;10.696;2024-01-06T13:23:22;102.63;;;33.33;;
29550;SDS011;16488;52.396;10.696;2024-01-06T13:25:48;83.13;;;30.13;;
29550;SDS011;16488;52.396;10.696;2024-01-06T13:28:13;110.78;;;34.45;;
29550;SDS011;16488;52.396;10.696;2024-01-06T13:30:39;99.22;;;32.67;;
29550;SDS011;16488;52.396;10.696;2024-01-06T13:33:06;110.25;;;36.33;;
29550;SDS011;16488;52.396;10.696;2024-01-06T13:35:35;108.28;;;35.72;;
29550;SDS011;16488;52.396;10.696;2024-01-06T13:38:04;103.57;;;35.88;;
29550;SDS011;16488;52.396;10.696;2024-01-06T13:40:30;103.05;;;34.35;;
29550;SDS011;16488;52.396;10.696;2024-01-06T13:45:23;95.05;;;33.97;;
29550;SDS011;16488;52.396;10.696;2024-01-06T13:47:49;107.00;;;34.75;;
29550;SDS011;16488;52.396;10.696;2024-01-06T13:50:18;112.15;;;38.95;;
29550;SDS011;16488;52.396;10.696;2024-01-06T13:52:44;109.68;;;35.83;;
29550;SDS011;16488;52.396;10.696;2024-01-06T13:55:13;119.32;;;42.85;;
29550;SDS011;16488;52.396;10.696;2024-01-06T13:57:39;102.63;;;36.13;;
29550;SDS011;16488;52.396;10.696;2024-01-06T14:00:09;106.93;;;35.03;;
29550;SDS011;16488;52.396;10.696;2024-01-06T14:02:36;107.82;;;35.38;;
29550;SDS011;16488;52.396;10.696;2024-01-06T14:05:03;108.50;;;35.58;;
29550;SDS011;16488;52.396;10.696;2024-01-06T14:07:33;114.07;;;37.38;;
29550;SDS011;16488;52.396;10.696;2024-01-06T14:09:59;109.75;;;35.40;;
29550;SDS011;16488;52.396;10.696;2024-01-06T14:12:25;109.90;;;38.70;;
29550;SDS011;16488;52.396;10.696;2024-01-06T14:14:51;127.05;;;36.38;;
29550;SDS011;16488;52.396;10.696;2024-01-06T14:17:16;116.18;;;39.55;;
29550;SDS011;16488;52.396;10.696;2024-01-06T14:19:42;113.03;;;38.03;;
29550;SDS011;16488;52.396;10.696;2024-01-06T14:22:08;129.43;;;36.20;;
29550;SDS011;16488;52.396;10.696;2024-01-06T14:24:33;95.65;;;34.47;;
29550;SDS011;16488;52.396;10.696;2024-01-06T14:27:01;99.88;;;35.78;;
29550;SDS011;16488;52.396;10.696;2024-01-06T14:29:28;94.78;;;31.55;;
29550;SDS011;16488;52.396;10.696;2024-01-06T14:31:55;100.75;;;36.50;;
29550;SDS011;16488;52.396;10.696;2024-01-06T14:34:21;102.20;;;35.55;;
29550;SDS011;16488;52.396;10.696;2024-01-06T14:36:46;103.25;;;34.83;;
29550;SDS011;16488;52.396;10.696;2024-01-06T14:39:16;100.28;;;36.55;;
29550;SDS011;16488;52.396;10.696;2024-01-06T14:41:42;113.65;;;39.35;;
29550;SDS011;16488;52.396;10.696;2024-01-06T14:44:07;111.90;;;39.13;;
29550;SDS011;16488;52.396;10.696;2024-01-06T14:46:33;127.45;;;39.67;;